Time;durP1;ratioP1;P1;durP2;ratioP2;P2;SDS_P1;SDS_P2;PMS_P1;PMS_P2;Temp;Humidity;BMP_temperature;BMP_pressure;BME280_temperature;BME280_humidity;BME280_pressure;Samples;Min_cycle;Max_cycle;Signal;HPM_P1;HPM_P2
2021/10/14 00:01:38;;;;;;;5.03;4.25;;;;;;;11.43;73.06;101204.66;10273821;23;20459;-57
2021/10/14 00:06:39;;;;;;;6.25;4.15;;;;;;;11.38;72.71;101212.09;10270983;28;20149;-57
2021/10/14 00:11:41;;;;;;;4.88;3.67;;;;;;;11.47;73.68;101214.16;10265558;28;20043;-56
2021/10/14 00:16:42;;;;;;;6.53;3.83;;;;;;;11.56;73.80;101189.50;10270408;28;20062;-57
2021/10/14 00:21:44;;;;;;;8.40;4.00;;;;;;;11.39;72.29;101176.47;10271580;28;20070;-57
2021/10/14 00:26:45;;;;;;;7.63;4.40;;;;;;;11.30;72.86;101177.97;10267229;28;20075;-57
2021/10/14 00:31:46;;;;;;;6.68;4.10;;;;;;;11.25;73.99;101180.94;10271145;28;20105;-56
2021/10/14 00:36:48;;;;;;;4.63;3.72;;;;;;;11.32;73.73;101178.72;10267140;28;22865;-58
2021/10/14 00:41:49;;;;;;;4.25;3.83;;;;;;;11.28;73.07;101170.06;10274573;28;20114;-57
2021/10/14 00:46:53;;;;;;;5.40;4.07;;;;;;;11.20;73.41;101151.13;10278042;28;20137;-56
2021/10/14 00:51:54;;;;;;;7.55;4.57;;;;;;;11.06;73.48;101154.69;10277987;28;20679;-57
2021/10/14 00:56:55;;;;;;;6.15;4.43;;;;;;;10.83;74.32;101139.44;10277366;28;20079;-58
2021/10/14 01:01:57;;;;;;;5.18;4.05;;;;;;;10.82;75.32;101141.22;10275986;28;20526;-58
2021/10/14 01:06:59;;;;;;;6.95;4.50;;;;;;;10.79;75.36;101152.09;10268723;28;20716;-57
2021/10/14 01:12:02;;;;;;;7.25;4.45;;;;;;;10.77;75.19;101162.84;10272553;28;20109;-57
2021/10/14 01:17:03;;;;;;;5.95;5.05;;;;;;;10.83;74.57;101152.75;10269455;28;20496;-57
2021/10/14 01:22:04;;;;;;;5.40;4.60;;;;;;;10.87;75.92;101144.47;10268464;28;20049;-57
2021/10/14 01:27:08;;;;;;;5.20;4.50;;;;;;;10.75;74.56;101156.78;10273987;28;20047;-57
2021/10/14 01:32:09;;;;;;;6.78;4.90;;;;;;;10.69;75.77;101151.88;10275761;28;20078;-57
2021/10/14 01:37:11;;;;;;;5.45;4.63;;;;;;;10.73;75.17;101153.38;10269363;28;20046;-57
2021/10/14 01:42:12;;;;;;;6.63;4.45;;;;;;;10.46;76.62;101148.06;10275611;28;20074;-57
2021/10/14 01:47:13;;;;;;;8.80;5.10;;;;;;;10.46;75.67;101150.72;10276658;28;20078;-58
2021/10/14 01:52:15;;;;;;;7.43;5.13;;;;;;;10.52;76.50;101144.97;10269442;28;20047;-57
2021/10/14 01:57:16;;;;;;;5.55;4.55;;;;;;;10.59;76.43;101137.47;10268141;28;20055;-58
2021/10/14 02:02:18;;;;;;;6.75;5.05;;;;;;;10.57;76.52;101131.41;10274504;28;20054;-56
2021/10/14 02:07:19;;;;;;;10.25;4.68;;;;;;;10.28;76.00;101120.81;10264089;28;20644;-57
2021/10/14 02:12:21;;;;;;;7.18;4.75;;;;;;;10.50;75.45;101136.25;10268361;28;20142;-56
2021/10/14 02:17:22;;;;;;;5.65;4.95;;;;;;;10.43;76.69;101134.94;10255804;28;20047;-56
2021/10/14 02:22:24;;;;;;;4.90;4.40;;;;;;;10.59;76.19;101124.16;10267869;28;20055;-57
2021/10/14 02:27:25;;;;;;;6.15;4.43;;;;;;;10.66;75.71;101140.56;10272940;28;20046;-57
2021/10/14 02:32:27;;;;;;;7.85;4.80;;;;;;;10.37;75.25;101133.56;10265940;28;20059;-57
2021/10/14 02:37:28;;;;;;;6.72;4.75;;;;;;;10.27;77.26;101124.44;10275247;28;20098;-56
2021/10/14 02:42:30;;;;;;;6.97;5.38;;;;;;;10.29;76.54;101127.84;10268157;28;20155;-56
2021/10/14 02:47:32;;;;;;;5.78;4.85;;;;;;;10.15;76.80;101131.41;10265128;28;20078;-56
2021/10/14 02:52:33;;;;;;;7.40;6.70;;;;;;;10.14;76.98;101129.69;10268534;28;20412;-56
2021/10/14 02:57:35;;;;;;;8.65;5.00;;;;;;;10.21;77.02;101128.34;10267952;28;20074;-55
2021/10/14 03:02:36;;;;;;;6.43;5.10;;;;;;;10.15;76.52;101130.53;10268335;28;20134;-56
2021/10/14 03:07:38;;;;;;;7.40;5.25;;;;;;;10.09;77.34;101131.81;10269086;28;20484;-56
2021/10/14 03:12:40;;;;;;;6.60;4.90;;;;;;;10.16;77.24;101126.94;10274564;28;20595;-56
2021/10/14 03:17:41;;;;;;;6.20;5.35;;;;;;;10.25;78.23;101127.22;10268339;28;20054;-56
2021/10/14 03:22:42;;;;;;;6.40;5.72;;;;;;;10.26;77.05;101120.91;10275082;28;20066;-56
2021/10/14 03:27:44;;;;;;;6.00;5.43;;;;;;;10.12;77.55;101115.66;10273274;28;20134;-56
2021/10/14 03:32:45;;;;;;;9.10;5.10;;;;;;;10.04;77.81;101117.94;10273451;28;20102;-56
2021/10/14 03:37:47;;;;;;;7.40;6.07;;;;;;;10.09;77.67;101121.16;10267123;28;20039;-56
2021/10/14 03:42:49;;;;;;;10.18;6.40;;;;;;;9.90;78.93;101129.47;10276360;28;20053;-56
2021/10/14 03:47:50;;;;;;;6.82;6.07;;;;;;;9.85;78.67;101142.22;10271290;28;20047;-56
2021/10/14 03:52:51;;;;;;;10.13;6.38;;;;;;;9.98;78.30;101150.25;10270020;28;20051;-55
2021/10/14 03:57:53;;;;;;;6.63;5.90;;;;;;;9.84;79.50;101146.66;10272510;28;20070;-56
2021/10/14 04:02:55;;;;;;;7.63;6.20;;;;;;;9.94;78.55;101143.41;10264314;28;20058;-57
2021/10/14 04:07:57;;;;;;;11.15;6.75;;;;;;;10.04;78.53;101131.25;10274771;28;20337;-56
2021/10/14 04:12:58;;;;;;;8.57;6.18;;;;;;;10.01;79.19;101126.13;10268755;28;20046;-56
2021/10/14 04:17:59;;;;;;;9.27;7.25;;;;;;;9.98;79.91;101140.47;10276783;28;20043;-56
2021/10/14 04:23:01;;;;;;;7.68;6.60;;;;;;;9.81;80.10;101133.56;10277085;28;20058;-56
2021/10/14 04:28:02;;;;;;;8.35;6.30;;;;;;;9.87;80.59;101127.84;10275527;28;20078;-58
2021/10/14 04:33:04;;;;;;;7.85;6.05;;;;;;;9.99;79.10;101128.03;10279408;28;20105;-56
2021/10/14 04:38:06;;;;;;;12.20;7.07;;;;;;;9.99;80.23;101117.41;10272051;28;20078;-57
2021/10/14 04:43:08;;;;;;;8.30;7.15;;;;;;;10.19;79.76;101121.41;10279076;28;20094;-56
2021/10/14 04:48:10;;;;;;;9.82;6.43;;;;;;;10.07;79.40;101112.41;10275926;28;20140;-56
2021/10/14 04:53:11;;;;;;;7.05;5.90;;;;;;;10.10;79.05;101106.91;10275444;28;20050;-57
2021/10/14 04:58:13;;;;;;;8.07;6.05;;;;;;;9.98;79.09;101108.53;10278345;28;20058;-56
2021/10/14 05:03:14;;;;;;;7.50;6.18;;;;;;;9.94;79.08;101100.84;10241795;28;20142;-56
2021/10/14 05:08:17;;;;;;;7.43;5.88;;;;;;;10.05;79.18;101122.31;10260958;28;20055;-56
2021/10/14 05:13:18;;;;;;;7.60;6.40;;;;;;;10.11;79.79;101123.72;10261665;28;20070;-56
2021/10/14 05:18:20;;;;;;;6.63;5.93;;;;;;;10.15;78.55;101126.09;10266143;28;20540;-57
2021/10/14 05:23:21;;;;;;;6.60;5.95;;;;;;;10.00;79.51;101132.41;10263238;28;20043;-57
2021/10/14 05:28:22;;;;;;;8.30;6.30;;;;;;;10.02;79.16;101125.19;10258916;28;20129;-57
2021/10/14 05:33:24;;;;;;;8.30;6.07;;;;;;;9.94;78.96;101119.47;10266289;28;20141;-56
2021/10/14 05:38:25;;;;;;;8.27;6.95;;;;;;;9.99;79.10;101120.06;10259910;28;20082;-55
2021/10/14 05:43:27;;;;;;;7.03;6.28;;;;;;;9.90;79.67;101089.56;10261591;28;20507;-57
2021/10/14 05:48:28;;;;;;;7.95;6.00;;;;;;;9.98;79.27;101118.34;10265360;28;20460;-57
2021/10/14 05:53:30;;;;;;;8.73;6.43;;;;;;;9.93;79.40;101134.59;10263785;28;20133;-56
2021/10/14 05:58:31;;;;;;;6.75;5.45;;;;;;;9.97;79.82;101127.25;10276318;28;20101;-58
2021/10/14 06:03:36;;;;;;;7.88;6.22;;;;;;;9.93;80.24;101121.28;10284946;23;20128;-60
2021/10/14 06:08:38;;;;;;;7.38;6.15;;;;;;;9.91;79.53;101116.06;10294254;28;20442;-65
2021/10/14 06:13:39;;;;;;;7.43;6.25;;;;;;;9.88;80.29;101137.53;10302163;28;20078;-61
2021/10/14 06:18:41;;;;;;;7.32;6.50;;;;;;;10.06;79.76;101132.00;10301191;28;20140;-62
2021/10/14 06:23:43;;;;;;;9.20;6.85;;;;;;;10.06;79.49;101137.34;10292961;28;20055;-61
2021/10/14 06:28:44;;;;;;;8.30;6.40;;;;;;;9.96;79.44;101136.22;10291682;28;20536;-61
2021/10/14 06:33:45;;;;;;;10.38;6.45;;;;;;;9.86;79.67;101131.47;10305730;28;20136;-62
2021/10/14 06:38:47;;;;;;;8.90;6.45;;;;;;;9.91;80.55;101140.00;10310152;28;21997;-62
2021/10/14 06:43:49;;;;;;;9.95;6.55;;;;;;;10.02;79.77;101141.97;10311332;28;20046;-61
2021/10/14 06:48:51;;;;;;;9.07;6.28;;;;;;;10.04;79.07;101144.53;10318725;28;20121;-62
2021/10/14 06:53:52;;;;;;;9.55;7.50;;;;;;;10.06;79.82;101153.28;10307487;28;20426;-62
2021/10/14 06:58:53;;;;;;;8.02;6.35;;;;;;;10.15;79.19;101149.16;10308008;28;20054;-62
2021/10/14 07:03:55;;;;;;;6.45;5.80;;;;;;;10.16;79.61;101135.75;10297793;28;20196;-61
2021/10/14 07:08:56;;;;;;;13.00;7.13;;;;;;;10.05;79.30;101139.13;10309272;28;20392;-62
2021/10/14 07:13:58;;;;;;;10.63;7.15;;;;;;;9.99;79.54;101141.34;10305194;28;20132;-61
2021/10/14 07:19:00;;;;;;;9.30;6.85;;;;;;;9.91;80.30;101133.84;10304095;28;20070;-62
2021/10/14 07:24:01;;;;;;;9.18;6.60;;;;;;;9.91;80.58;101134.69;10311205;28;20208;-62
2021/10/14 07:29:04;;;;;;;10.30;7.13;;;;;;;9.95;79.57;101139.81;10305566;28;20062;-61
2021/10/14 07:34:06;;;;;;;8.88;6.60;;;;;;;10.02;79.24;101141.97;10305962;28;20086;-62
2021/10/14 07:39:07;;;;;;;11.30;6.90;;;;;;;10.01;80.15;101132.31;10306052;28;21615;-62
2021/10/14 07:44:09;;;;;;;8.43;6.60;;;;;;;10.07;80.27;101141.69;10310801;28;20064;-61
2021/10/14 07:49:12;;;;;;;8.77;7.05;;;;;;;10.12;79.71;101139.59;10312422;28;20070;-62
2021/10/14 07:54:13;;;;;;;8.38;6.85;;;;;;;10.18;79.18;101130.38;10318125;28;20514;-61
2021/10/14 07:59:14;;;;;;;8.38;6.40;;;;;;;10.22;78.45;101143.38;10319175;28;20116;-62
2021/10/14 08:04:16;;;;;;;7.88;6.53;;;;;;;10.34;78.47;101146.22;10295150;28;20065;-61
2021/10/14 08:09:18;;;;;;;10.48;7.07;;;;;;;10.41;78.66;101143.03;10315939;28;20054;-61
2021/10/14 08:14:19;;;;;;;9.20;6.80;;;;;;;10.48;78.72;101143.50;10313650;28;20493;-60
2021/10/14 08:19:21;;;;;;;8.82;7.35;;;;;;;10.61;77.84;101143.53;10306588;28;20487;-60
2021/10/14 08:24:24;;;;;;;10.05;6.05;;;;;;;10.49;78.31;101142.53;10314253;28;20137;-59
2021/10/14 08:29:26;;;;;;;8.30;6.78;;;;;;;10.74;78.07;101148.91;10311779;28;20148;-59
2021/10/14 08:34:29;;;;;;;8.63;6.78;;;;;;;10.71;76.60;101155.28;10311072;28;20135;-59
2021/10/14 08:39:30;;;;;;;10.25;7.15;;;;;;;10.81;77.60;101147.53;10313305;28;20074;-60
2021/10/14 08:44:32;;;;;;;8.45;6.65;;;;;;;10.77;76.50;101143.38;10317212;28;20479;-59
2021/10/14 08:49:33;;;;;;;7.32;6.63;;;;;;;10.74;76.31;101146.25;10313040;28;20073;-59
2021/10/14 08:54:35;;;;;;;13.60;6.97;;;;;;;10.94;75.73;101135.09;10306410;28;20129;-59
2021/10/14 08:59:37;;;;;;;9.05;6.40;;;;;;;11.07;75.21;101129.78;10314384;28;20076;-61
2021/10/14 09:04:40;;;;;;;7.82;6.90;;;;;;;11.03;74.92;101141.59;10288680;28;20069;-60
2021/10/14 09:09:42;;;;;;;10.00;7.10;;;;;;;11.04;75.23;101145.13;10302012;28;20046;-60
2021/10/14 09:15:07;;;;;;;6.25;5.57;;;;;;;11.16;75.07;101143.44;10309694;28;20117;-60
2021/10/14 09:20:21;;;;;;;9.57;6.65;;;;;;;11.33;74.06;101143.09;10306551;28;20129;-60
2021/10/14 09:25:34;;;;;;;11.48;6.78;;;;;;;11.47;74.25;101142.16;10271935;28;20069;-60
2021/10/14 09:30:42;;;;;;;10.43;7.03;;;;;;;11.48;73.41;101134.06;10313133;28;20687;-60
2021/10/14 09:35:44;;;;;;;11.93;6.88;;;;;;;11.37;73.74;101130.44;10306287;28;20050;-60
2021/10/14 09:41:00;;;;;;;8.00;6.28;;;;;;;11.27;74.50;101131.06;10311886;28;20832;-60
2021/10/14 09:46:03;;;;;;;11.02;6.53;;;;;;;11.29;74.39;101142.47;10295664;28;20059;-60
2021/10/14 09:51:04;;;;;;;11.85;7.03;;;;;;;11.18;74.47;101142.34;10291505;28;20072;-60
2021/10/14 09:56:06;;;;;;;9.13;6.97;;;;;;;11.07;75.18;101140.44;10299382;28;20056;-60
2021/10/14 10:01:07;;;;;;;9.05;6.70;;;;;;;11.21;75.67;101133.28;10302213;28;20062;-60
2021/10/14 10:06:11;;;;;;;7.93;6.40;;;;;;;11.42;74.15;101131.78;10300015;28;20411;-60
2021/10/14 10:11:17;;;;;;;9.17;6.67;;;;;;;11.49;74.12;101135.75;10298912;28;20068;-60
2021/10/14 10:16:22;;;;;;;9.18;6.55;;;;;;;11.52;73.75;101115.16;10298870;28;20081;-60
2021/10/14 10:21:29;;;;;;;8.70;6.55;;;;;;;11.60;73.68;101121.63;10303298;28;20065;-60
2021/10/14 10:26:36;;;;;;;8.85;6.28;;;;;;;11.48;73.79;101118.06;10294963;28;20065;-60
2021/10/14 10:31:56;;;;;;;10.85;9.80;;;;;;;11.45;74.34;101112.06;10306836;28;20112;-60
2021/10/14 10:37:18;;;;;;;10.50;8.50;;;;;;;11.61;73.64;101128.69;10308186;28;20172;-60
2021/10/14 10:42:31;;;;;;;11.10;10.00;;;;;;;11.69;73.64;101125.47;10303403;28;20376;-60
2021/10/14 10:47:41;;;;;;;8.20;7.45;;;;;;;11.82;72.79;101130.78;10310363;28;20635;-60
2021/10/14 10:52:45;;;;;;;10.50;8.85;;;;;;;11.77;73.14;101124.91;10305339;28;20745;-60
2021/10/14 10:57:48;;;;;;;9.67;8.73;;;;;;;11.76;72.94;101125.91;10306004;28;20062;-60
2021/10/14 11:03:16;;;;;;;13.20;10.35;;;;;;;11.76;73.38;101117.91;10307389;28;20376;-60
2021/10/14 11:08:38;;;;;;;10.68;9.70;;;;;;;11.86;73.37;101110.94;10302342;28;20157;-60
2021/10/14 11:13:43;;;;;;;9.40;7.20;;;;;;;11.78;73.16;101103.47;10310849;28;20143;-60
2021/10/14 11:18:47;;;;;;;8.73;7.10;;;;;;;11.68;73.69;101089.97;10312294;28;20101;-63
2021/10/14 11:24:08;;;;;;;7.57;6.53;;;;;;;11.83;73.88;101090.66;10317998;28;20077;-61
2021/10/14 11:29:17;;;;;;;8.60;6.80;;;;;;;11.87;72.75;101085.09;10309688;28;20692;-60
2021/10/14 11:34:24;;;;;;;9.13;5.85;;;;;;;11.91;73.04;101073.25;10307308;28;20045;-60
2021/10/14 11:39:34;;;;;;;7.93;5.70;;;;;;;12.08;72.05;101077.38;10311027;28;20141;-59
2021/10/14 11:44:38;;;;;;;6.30;5.03;;;;;;;12.14;72.04;101076.91;10300600;28;20066;-60
2021/10/14 11:49:40;;;;;;;;;;;;;;;12.38;71.46;101075.09;10301688;28;20412;-60
2021/10/14 11:54:42;;;;;;;9.45;6.30;;;;;;;12.32;70.84;101062.19;10308198;28;19952;-60
2021/10/14 11:59:43;;;;;;;6.30;5.60;;;;;;;12.33;71.07;101050.56;10303469;28;20526;-60
2021/10/14 12:04:50;;;;;;;6.95;5.90;;;;;;;12.32;71.21;101045.34;10358242;23;20577;-57
2021/10/14 12:09:53;;;;;;;8.25;5.70;;;;;;;12.42;70.94;101046.34;10303224;28;20138;-56
2021/10/14 12:15:03;;;;;;;7.07;5.13;;;;;;;12.41;70.80;101019.75;10305199;28;20045;-56
2021/10/14 12:20:12;;;;;;;7.65;5.13;;;;;;;12.67;70.63;101042.66;10304852;28;20579;-56
2021/10/14 12:25:25;;;;;;;9.65;5.97;;;;;;;12.86;70.04;101046.56;10307813;28;20378;-57
2021/10/14 12:30:31;;;;;;;8.35;6.55;;;;;;;12.88;70.16;101033.94;10311280;28;20208;-56
2021/10/14 12:35:33;;;;;;;9.75;5.70;;;;;;;13.20;70.07;101030.56;10307926;28;20124;-56
2021/10/14 12:40:36;;;;;;;6.88;5.43;;;;;;;13.53;68.95;101023.53;10313705;28;20047;-57
2021/10/14 12:56:07;;;;;;;9.90;5.70;;;;;;;14.61;64.68;101002.09;10314857;28;20129;-57
2021/10/14 13:01:11;;;;;;;7.22;5.78;;;;;;;15.61;61.17;100996.97;10316298;28;20140;-56
2021/10/14 13:06:13;;;;;;;9.73;5.50;;;;;;;17.13;56.83;100990.94;10312910;28;20097;-56
2021/10/14 13:11:17;;;;;;;7.72;4.88;;;;;;;18.71;53.52;100981.50;10319623;28;20073;-56
2021/10/14 13:16:18;;;;;;;7.20;4.70;;;;;;;19.03;50.59;100977.31;10318897;28;20053;-56
2021/10/14 13:21:22;;;;;;;7.68;4.90;;;;;;;19.84;49.20;100974.25;10316257;28;20082;-57
2021/10/14 13:26:24;;;;;;;9.73;4.85;;;;;;;18.48;51.78;100969.56;10314393;28;20136;-56
2021/10/14 13:31:26;;;;;;;8.25;5.00;;;;;;;17.30;55.93;100964.22;10315951;28;20133;-56
2021/10/14 13:36:28;;;;;;;8.32;5.32;;;;;;;16.56;58.54;100966.75;10313304;28;20100;-56
2021/10/14 13:41:30;;;;;;;5.85;5.25;;;;;;;15.92;59.85;100959.34;10318454;28;20054;-55
2021/10/14 13:46:32;;;;;;;7.43;5.28;;;;;;;15.55;62.14;100961.69;10312249;28;20121;-54
2021/10/14 13:51:33;;;;;;;8.30;5.53;;;;;;;15.59;62.26;100956.03;10309624;28;20061;-55
2021/10/14 13:56:35;;;;;;;10.82;5.40;;;;;;;16.22;60.64;100935.00;10317660;28;20046;-57
2021/10/14 14:01:36;;;;;;;7.53;5.00;;;;;;;16.47;59.68;100942.56;10309993;28;20057;-55
2021/10/14 14:06:40;;;;;;;5.93;4.97;;;;;;;16.37;60.56;100923.81;10312054;28;20046;-56
2021/10/14 14:11:42;;;;;;;;;;;;;;;16.64;60.13;100931.09;10307807;28;20077;-56
2021/10/14 14:16:43;;;;;;;6.72;5.47;;;;;;;18.15;55.60;100918.09;10308857;28;20009;-57
2021/10/14 14:21:47;;;;;;;7.90;4.90;;;;;;;20.73;47.78;100918.44;10312647;28;20062;-56
2021/10/14 14:26:48;;;;;;;6.50;4.05;;;;;;;22.99;42.29;100908.25;10309061;28;20045;-56
2021/10/14 14:31:50;;;;;;;5.95;4.35;;;;;;;25.43;38.92;100888.78;10308380;28;20057;-56
2021/10/14 14:36:52;;;;;;;8.10;4.25;;;;;;;23.64;40.59;100896.47;10313931;28;20077;-56
2021/10/14 14:41:53;;;;;;;7.13;4.18;;;;;;;20.40;47.70;100896.88;10307566;28;20047;-56
2021/10/14 14:46:56;;;;;;;8.55;4.68;;;;;;;18.66;51.98;100900.25;10308924;28;20491;-55
2021/10/14 14:51:59;;;;;;;6.70;3.40;;;;;;;18.08;54.07;100882.03;10316941;28;20054;-56
2021/10/14 14:57:00;;;;;;;3.97;3.25;;;;;;;17.24;56.17;100887.66;10302094;28;20121;-55
2021/10/14 15:02:02;;;;;;;5.72;3.95;;;;;;;16.83;57.74;100876.41;10301803;28;20136;-56
2021/10/14 15:07:04;;;;;;;6.32;3.63;;;;;;;16.28;59.46;100874.47;10299306;28;20065;-57
2021/10/14 15:12:06;;;;;;;5.25;3.72;;;;;;;16.03;60.83;100874.13;10293374;28;20073;-56
2021/10/14 15:17:07;;;;;;;6.18;3.17;;;;;;;16.03;60.90;100867.88;10305450;28;20050;-55
2021/10/14 15:22:08;;;;;;;5.05;3.20;;;;;;;15.76;61.38;100858.69;10297921;28;20574;-56
2021/10/14 15:27:12;;;;;;;5.88;2.95;;;;;;;15.68;62.25;100855.91;10314184;28;20137;-56
2021/10/14 15:32:14;;;;;;;8.30;3.28;;;;;;;15.74;62.05;100868.75;10311395;28;20054;-56
2021/10/14 15:37:18;;;;;;;7.45;3.15;;;;;;;15.60;62.57;100859.28;10314522;28;20090;-56
2021/10/14 15:42:23;;;;;;;4.30;3.15;;;;;;;15.37;63.63;100864.06;10313031;28;20145;-56
2021/10/14 15:47:25;;;;;;;4.20;3.10;;;;;;;15.34;63.17;100861.66;10313296;28;20054;-56
2021/10/14 15:52:26;;;;;;;5.10;3.05;;;;;;;15.27;63.79;100861.38;10308552;28;20082;-56
2021/10/14 15:57:28;;;;;;;6.97;3.08;;;;;;;15.25;64.16;100851.78;10312708;28;20137;-56
2021/10/14 16:02:29;;;;;;;6.50;3.40;;;;;;;15.14;64.42;100845.56;10312783;28;20168;-56
2021/10/14 16:07:31;;;;;;;5.10;3.03;;;;;;;15.09;64.99;100853.19;10313898;28;20082;-56
2021/10/14 16:12:32;;;;;;;7.55;3.53;;;;;;;14.99;65.32;100842.41;10300629;28;20178;-56
2021/10/14 16:17:34;;;;;;;7.57;3.03;;;;;;;14.94;65.58;100850.03;10311446;28;20470;-56
2021/10/14 16:22:40;;;;;;;4.22;2.67;;;;;;;14.94;66.28;100854.56;10309330;28;20045;-56
2021/10/14 16:27:44;;;;;;;5.20;3.25;;;;;;;14.85;66.62;100824.91;10307874;28;20082;-56
2021/10/14 16:38:02;;;;;;;4.20;2.85;;;;;;;14.77;67.09;100831.94;10315779;28;20324;-56
2021/10/14 16:43:08;;;;;;;6.32;3.50;;;;;;;14.73;67.47;100830.53;10307774;28;20531;-56
2021/10/14 16:48:10;;;;;;;6.65;3.22;;;;;;;14.75;68.08;100839.25;10315162;28;20530;-56
2021/10/14 16:53:12;;;;;;;6.05;4.25;;;;;;;14.76;67.88;100828.41;10322134;28;20465;-56
2021/10/14 16:58:13;;;;;;;4.65;3.45;;;;;;;14.65;68.21;100823.16;10313484;28;20518;-56
2021/10/14 17:03:15;;;;;;;4.93;3.92;;;;;;;14.63;68.96;100822.44;10314251;28;20050;-56
2021/10/14 17:08:18;;;;;;;8.98;4.57;;;;;;;14.52;68.82;100820.69;10307569;28;20454;-56
2021/10/14 17:13:20;;;;;;;8.20;4.78;;;;;;;14.31;69.66;100820.75;10300716;28;20157;-56
2021/10/14 17:18:23;;;;;;;5.80;4.15;;;;;;;14.39;69.93;100826.25;10311565;28;20587;-56
2021/10/14 17:39:31;;;;;;;7.35;5.10;;;;;;;14.18;70.67;100828.16;10291977;28;20524;-56
2021/10/14 17:44:45;;;;;;;6.57;4.68;;;;;;;14.17;70.42;100818.41;10304315;28;20065;-56
2021/10/14 17:49:46;;;;;;;8.18;5.60;;;;;;;14.01;70.78;100811.72;10312321;28;20050;-56
2021/10/14 17:54:48;;;;;;;8.52;5.65;;;;;;;14.01;71.45;100825.09;10303543;28;20074;-56
2021/10/14 17:59:49;;;;;;;7.80;6.07;;;;;;;14.03;70.74;100820.44;10310197;28;20170;-56
2021/10/14 18:41:48;;;;;;;8.77;5.57;;;;;;;14.11;70.95;100793.88;10341455;28;20064;-59
2021/10/14 18:46:50;;;;;;;7.10;5.97;;;;;;;14.02;71.13;100800.03;10327675;28;21782;-64
2021/10/14 18:51:52;;;;;;;7.78;5.30;;;;;;;13.91;71.46;100798.25;10342343;28;20053;-64
2021/10/14 18:56:57;;;;;;;8.27;5.80;;;;;;;13.85;70.89;100797.94;10347738;28;20478;-63
2021/10/14 19:02:01;;;;;;;8.18;5.57;;;;;;;13.85;71.31;100795.28;10333963;28;20062;-64
2021/10/14 19:07:13;;;;;;;;;;;;;;;13.79;70.59;100796.63;10333051;28;20054;-64
2021/10/14 19:18:03;;;;;;;5.47;4.95;;;;;;;13.66;70.91;100775.44;10345827;28;20513;-64
2021/10/14 20:21:18;;;;;;;5.68;4.97;;;;;;;13.16;70.46;100756.47;10348208;28;20058;-64
2021/10/14 20:26:20;;;;;;;11.60;5.95;;;;;;;13.12;70.80;100757.69;10339802;28;20128;-63
2021/10/14 20:31:25;;;;;;;8.70;5.28;;;;;;;13.12;70.55;100763.03;10336103;28;20137;-64
2021/10/14 20:36:27;;;;;;;8.25;5.25;;;;;;;13.12;70.49;100752.34;10339965;28;20062;-64
2021/10/14 20:41:29;;;;;;;9.38;5.22;;;;;;;13.12;70.58;100752.34;10342493;28;20069;-64
2021/10/14 20:46:30;;;;;;;6.50;5.53;;;;;;;13.11;70.21;100745.31;10342695;28;20074;-65
2021/10/14 20:51:36;;;;;;;8.55;5.28;;;;;;;12.86;71.29;100742.00;10343175;28;21285;-64
2021/10/14 21:07:04;;;;;;;6.47;5.82;;;;;;;12.65;71.63;100717.91;10346390;28;20053;-64
2021/10/14 21:12:06;;;;;;;8.77;5.80;;;;;;;12.57;71.76;100713.19;10351382;28;20042;-63
2021/10/14 21:17:08;;;;;;;8.82;6.93;;;;;;;12.44;72.10;100709.81;10359242;28;20045;-64
2021/10/14 21:22:09;;;;;;;8.00;6.35;;;;;;;12.34;72.49;100704.34;10360283;28;20104;-64
2021/10/14 21:32:23;;;;;;;9.70;6.53;;;;;;;12.24;73.10;100704.25;10361790;28;20076;-63
2021/10/14 21:37:28;;;;;;;13.00;6.50;;;;;;;12.11;73.99;100696.38;10360613;28;20050;-64
2021/10/14 21:42:30;;;;;;;10.82;7.25;;;;;;;12.10;75.19;100685.81;10360871;28;20050;-64
2021/10/14 21:47:32;;;;;;;11.15;6.70;;;;;;;12.03;74.17;100685.47;10358992;28;20054;-64
2021/10/14 21:52:34;;;;;;;9.48;6.78;;;;;;;12.06;74.55;100679.06;10358742;28;20053;-64
2021/10/14 21:57:36;;;;;;;7.35;6.60;;;;;;;12.01;74.24;100666.94;10362057;28;20077;-64
2021/10/14 22:02:37;;;;;;;9.75;7.40;;;;;;;12.00;75.29;100665.22;10357860;28;20169;-65
2021/10/14 22:07:39;;;;;;;7.70;6.65;;;;;;;11.80;75.23;100674.78;10371179;28;20103;-65
2021/10/14 22:12:42;;;;;;;9.80;7.13;;;;;;;11.76;75.54;100675.16;10371816;28;20053;-65
2021/10/14 22:17:44;;;;;;;7.50;6.30;;;;;;;11.70;76.40;100673.81;10357414;28;20053;-64
2021/10/14 22:22:47;;;;;;;7.63;6.72;;;;;;;11.66;76.02;100670.56;10356558;28;20553;-64
2021/10/14 22:27:48;;;;;;;9.80;7.30;;;;;;;11.57;76.33;100665.06;10353025;28;20053;-65
2021/10/14 22:32:50;;;;;;;8.20;6.68;;;;;;;11.49;76.50;100665.69;10358911;28;20053;-64
2021/10/14 22:37:51;;;;;;;8.27;7.47;;;;;;;11.52;76.92;100669.94;10356546;28;20554;-64
2021/10/14 22:42:53;;;;;;;7.35;6.22;;;;;;;11.40;76.72;100653.06;10354744;28;20048;-64
2021/10/14 22:47:54;;;;;;;10.68;8.05;;;;;;;11.41;77.21;100657.41;10356407;28;20038;-64
2021/10/14 22:52:56;;;;;;;8.65;7.25;;;;;;;11.30;77.20;100645.78;10355566;28;20065;-63
2021/10/14 22:57:57;;;;;;;8.85;7.50;;;;;;;11.31;77.26;100631.47;10356343;28;20041;-65
2021/10/14 23:02:59;;;;;;;8.77;6.95;;;;;;;11.27;78.06;100624.72;10355340;28;20305;-65
2021/10/14 23:08:01;;;;;;;9.25;8.02;;;;;;;11.27;77.44;100630.03;10349265;28;20065;-65
2021/10/14 23:13:02;;;;;;;9.20;8.25;;;;;;;11.23;77.96;100625.91;10354259;28;20081;-64
2021/10/14 23:18:04;;;;;;;9.35;8.38;;;;;;;11.22;77.36;100621.53;10354203;28;20081;-65
2021/10/14 23:23:07;;;;;;;8.77;7.88;;;;;;;11.12;77.64;100613.41;10354773;28;20205;-65
2021/10/14 23:28:08;;;;;;;9.15;7.65;;;;;;;11.19;77.42;100615.59;10354204;28;20081;-64
2021/10/14 23:33:11;;;;;;;10.32;8.65;;;;;;;11.10;77.05;100606.50;10355643;28;20046;-64
2021/10/14 23:38:12;;;;;;;11.48;8.98;;;;;;;10.96;77.35;100595.09;10354767;28;20046;-65
2021/10/14 23:43:15;;;;;;;9.77;8.82;;;;;;;11.00;77.94;100597.53;10355800;28;20050;-65
2021/10/14 23:48:16;;;;;;;10.23;8.15;;;;;;;10.85;77.20;100587.06;10357774;28;20038;-65
2021/10/14 23:53:20;;;;;;;15.05;9.32;;;;;;;10.78;77.13;100591.19;10374099;28;20278;-65
2021/10/14 23:58:21;;;;;;;10.23;8.77;;;;;;;10.78;77.35;100577.88;10391469;28;20049;-65
